Terminal Aerodrome Forecast
Issued by NWS Shreveport, LA

Home | Current Version | Previous Version | Text Only | Print | Product List | Glossary On
Versions: 1 2 3 4 5 6 7 8 9 10 11 12 13 14 15 16 17 18
584
FTUS44 KSHV 251151
TAFMLU
TAF
KMLU 251151Z 2512/2612 00000KT 1SM BR FEW002
      TEMPO 2512/2513 VRB03KT 4SM BR
     FM251300 VRB03KT 6SM BR SCT250
     FM251500 18004KT P6SM SCT100 BKN250
     FM252100 23006KT P6SM SCT050 SCT080 BKN250
     FM260000 25012KT P6SM BKN050 OVC250
     FM260300 33012KT P6SM VCSH OVC015
     FM260600 26012KT 5SM -SHRA BR OVC007
     FM260900 28009KT P6SM VCSH OVC015=

USA.gov is the U.S. government's official web portal to all federal, state and local government web resources and services.